Time;durP1;ratioP1;P1;durP2;ratioP2;P2;SDS_P1;SDS_P2;PMS_P1;PMS_P2;Temp;Humidity;BMP_temperature;BMP_pressure;BME280_temperature;BME280_humidity;BME280_pressure;Samples;Min_cycle;Max_cycle;Signal;HPM_P1;HPM_P2
2023/06/03 00:01:05;;;;;;;4.83;2.60;;;13.40;59.00;;;13.04;57.99;98040.66;5028548;28;20918;-73
2023/06/03 00:03:32;;;;;;;3.30;2.87;;;13.30;59.30;;;13.03;58.28;98043.56;5035784;28;20550;-74
2023/06/03 00:06:00;;;;;;;2.80;2.50;;;13.30;59.50;;;13.03;58.34;98046.28;5029362;28;20473;-73
2023/06/03 00:08:27;;;;;;;4.47;2.57;;;13.30;59.80;;;12.97;58.52;98049.94;5023494;28;20991;-77
2023/06/03 00:10:54;;;;;;;4.03;2.60;;;13.30;59.90;;;12.97;58.47;98044.50;5051644;28;20471;-72
2023/06/03 00:13:23;;;;;;;2.50;2.07;;;13.30;60.10;;;12.89;58.68;98048.38;5024371;28;20798;-78
2023/06/03 00:15:50;;;;;;;3.43;2.90;;;13.20;60.70;;;12.83;58.64;98031.13;5028370;28;20452;-73
2023/06/03 00:18:18;;;;;;;3.77;2.40;;;13.30;60.50;;;12.78;58.69;98028.28;5024997;28;20507;-80
2023/06/03 00:20:47;;;;;;;2.40;2.20;;;13.30;60.60;;;12.88;58.77;98046.72;5023731;28;20886;-74
2023/06/03 00:23:15;;;;;;;4.30;3.00;;;13.20;60.80;;;12.82;58.81;98040.34;5022482;28;20971;-74
2023/06/03 00:25:43;;;;;;;4.50;3.33;;;13.20;61.00;;;12.79;59.14;98042.66;5023098;28;20526;-83
2023/06/03 00:28:10;;;;;;;5.10;2.73;;;13.20;61.30;;;12.71;59.37;98041.09;5024734;28;20464;-73
2023/06/03 00:30:39;;;;;;;4.67;2.93;;;13.10;61.50;;;12.72;59.29;98046.31;5029272;28;20595;-71
2023/06/03 00:33:07;;;;;;;10.17;2.83;;;13.20;61.60;;;12.60;59.37;98035.41;5038856;28;20452;-72
2023/06/03 00:35:34;;;;;;;5.73;3.03;;;13.10;61.70;;;12.64;59.99;98052.03;5028398;28;20451;-83
2023/06/03 00:38:03;;;;;;;3.67;2.53;;;13.10;62.00;;;12.72;59.52;98059.84;5025302;28;20465;-75
2023/06/03 00:40:30;;;;;;;3.50;2.73;;;13.10;62.10;;;12.54;59.59;98041.72;5025312;28;20535;-76
2023/06/03 00:42:57;;;;;;;3.97;2.80;;;13.00;62.30;;;12.54;60.06;98051.75;5037705;28;20934;-82
2023/06/03 00:45:25;;;;;;;9.40;2.83;;;13.00;62.70;;;12.53;59.97;98050.09;5029843;28;20459;-72
2023/06/03 00:47:54;;;;;;;5.60;2.83;;;12.90;63.30;;;12.47;60.33;98046.41;5025041;28;20454;-72
2023/06/03 00:50:21;;;;;;;2.87;2.40;;;12.90;63.30;;;12.54;60.16;98051.75;5024036;28;20537;-72
2023/06/03 00:52:50;;;;;;;4.90;3.60;;;12.90;63.60;;;12.42;60.56;98040.84;5033180;28;20550;-79
2023/06/03 00:55:17;;;;;;;4.50;3.17;;;12.80;63.80;;;12.43;60.73;98035.19;5024302;28;21054;-72
2023/06/03 00:57:45;;;;;;;4.67;2.80;;;12.80;64.10;;;11.96;60.71;97986.13;5033926;28;20468;-73
2023/06/03 01:00:13;;;;;;;2.83;2.27;;;12.70;64.50;;;12.32;61.27;98049.50;5032150;28;20458;-75
2023/06/03 01:02:43;;;;;;;5.50;2.73;;;12.70;64.90;;;12.25;61.36;98046.03;5040847;28;20456;-72
2023/06/03 01:05:13;;;;;;;4.50;3.03;;;12.70;65.20;;;12.32;61.59;98052.19;5023942;28;20485;-73
2023/06/03 01:07:56;;;;;;;4.33;3.03;;;12.70;65.50;;;12.27;61.53;98055.59;5020623;28;20465;-75
2023/06/03 01:10:30;;;;;;;4.23;2.73;;;12.70;65.80;;;12.25;61.53;98049.56;5029931;28;20447;-73
2023/06/03 01:13:04;;;;;;;4.93;2.90;;;12.60;66.40;;;12.19;62.15;98051.28;5024472;28;20488;-85
2023/06/03 01:15:33;;;;;;;5.07;2.70;;;12.60;66.50;;;12.28;61.71;98059.13;5025352;28;20480;-72
2023/06/03 01:18:04;;;;;;;5.80;2.70;;;12.60;66.60;;;12.21;61.97;98042.09;5030843;28;20454;-77
2023/06/03 01:20:33;;;;;;;7.93;4.03;;;12.60;66.70;;;12.11;62.07;98031.81;5030365;28;20468;-75
2023/06/03 01:23:19;;;;;;;4.33;3.00;;;12.50;67.20;;;12.16;61.82;98053.66;5033985;28;20911;-76
2023/06/03 01:25:46;;;;;;;5.60;2.90;;;12.50;67.50;;;11.77;62.11;97995.06;5032050;28;20453;-74
2023/06/03 01:28:13;;;;;;;7.20;2.70;;;12.50;67.80;;;12.02;62.39;98055.66;5032286;28;20542;-81
2023/06/03 01:30:41;;;;;;;6.77;3.00;;;12.40;68.20;;;12.01;62.42;98053.97;5021157;28;20451;-73
2023/06/03 01:33:08;;;;;;;4.07;2.57;;;12.40;68.60;;;12.06;62.42;98056.03;5028196;28;20483;-76
2023/06/03 01:35:36;;;;;;;4.97;2.90;;;12.40;68.90;;;12.05;62.60;98060.59;5022644;28;20454;-74
2023/06/03 01:38:04;;;;;;;4.00;2.80;;;12.30;69.10;;;12.04;62.87;98058.94;5036770;28;20860;-75
2023/06/03 01:40:33;;;;;;;6.00;3.10;;;12.30;69.30;;;12.00;62.57;98053.16;5032047;28;20455;-77
2023/06/03 01:43:00;;;;;;;3.97;2.83;;;12.30;69.60;;;11.95;62.90;98052.16;5034753;28;20477;-77
2023/06/03 01:45:28;;;;;;;5.20;2.97;;;12.30;69.70;;;11.94;63.68;98056.72;5027430;28;20455;-73
2023/06/03 01:47:55;;;;;;;3.80;2.70;;;12.30;70.30;;;11.94;63.06;98053.22;5026083;28;21004;-82
2023/06/03 01:50:24;;;;;;;9.27;2.70;;;12.30;70.20;;;11.92;63.49;98044.50;5024015;28;20499;-81
2023/06/03 01:52:52;;;;;;;5.67;3.00;;;12.30;70.30;;;11.90;63.33;98052.81;5029556;28;20480;-77
2023/06/03 01:55:19;;;;;;;5.90;2.97;;;12.30;70.50;;;11.83;63.55;98052.88;5033564;28;20459;-75
2023/06/03 01:57:48;;;;;;;3.13;2.83;;;12.20;70.50;;;11.79;63.88;98050.84;5031246;28;20457;-78
2023/06/03 02:00:17;;;;;;;7.13;3.33;;;12.20;70.80;;;11.65;63.43;98028.50;5042165;28;20458;-76
2023/06/03 02:02:44;;;;;;;3.70;3.20;;;12.20;71.00;;;11.82;63.61;98058.50;5027621;28;20526;-74
2023/06/03 02:05:11;;;;;;;4.53;2.73;;;12.20;71.10;;;11.88;63.21;98055.75;5032532;28;20457;-78
2023/06/03 02:07:39;;;;;;;4.10;2.63;;;12.20;71.00;;;11.98;63.25;98065.25;5027284;28;20848;-73
2023/06/03 02:10:07;;;;;;;4.97;3.17;;;12.20;71.20;;;12.03;62.98;98051.88;5042585;28;20458;-79
2023/06/03 02:12:34;;;;;;;4.33;2.90;;;12.30;70.90;;;12.03;62.72;98035.63;5033568;28;20490;-77
2023/06/03 02:15:04;;;;;;;3.43;3.10;;;12.50;70.80;;;12.29;62.50;98052.66;5031794;28;20521;-73
2023/06/03 02:17:31;;;;;;;3.73;2.73;;;12.60;70.50;;;12.36;62.24;98061.56;5045040;28;20455;-73
2023/06/03 02:19:58;;;;;;;5.40;2.80;;;12.60;70.50;;;12.40;61.74;98056.50;5042775;28;20976;-73
2023/06/03 02:22:26;;;;;;;2.63;2.37;;;12.70;69.90;;;12.38;61.39;98026.09;5052589;28;21010;-76
2023/06/03 02:24:57;;;;;;;3.97;2.47;;;12.70;69.80;;;12.58;61.45;98051.03;5029948;28;20455;-77
2023/06/03 02:27:25;;;;;;;3.47;2.60;;;12.80;69.70;;;12.55;61.37;98054.22;5026465;28;20460;-77
2023/06/03 02:29:53;;;;;;;2.43;2.20;;;12.80;69.40;;;12.54;60.98;98051.75;5032222;28;20573;-85
2023/06/03 02:32:23;;;;;;;5.23;2.83;;;12.90;69.10;;;12.34;60.96;98044.66;5035105;28;20490;-74
2023/06/03 02:34:51;;;;;;;3.73;2.50;;;12.80;68.80;;;12.29;61.66;98052.66;5033459;28;20479;-80
2023/06/03 02:37:19;;;;;;;5.10;3.10;;;12.70;69.20;;;12.32;61.72;98049.50;5034704;28;20743;-77
2023/06/03 02:39:46;;;;;;;3.90;2.60;;;12.70;69.50;;;12.34;61.44;98047.38;5032677;28;20457;-73
2023/06/03 02:42:14;;;;;;;6.57;2.20;;;12.60;69.40;;;12.27;61.73;98052.88;5032567;28;20451;-75
2023/06/03 02:44:41;;;;;;;4.87;2.80;;;12.60;69.50;;;12.09;62.08;98047.44;5043470;28;20457;-76
2023/06/03 02:47:08;;;;;;;3.60;2.87;;;12.50;69.50;;;12.15;62.10;98052.81;5039506;28;20454;-74
2023/06/03 02:49:37;;;;;;;4.63;3.20;;;12.50;69.80;;;11.98;62.41;98021.91;5027704;28;20946;-75
2023/06/03 02:52:06;;;;;;;3.93;2.90;;;12.50;69.80;;;11.93;62.65;98046.16;5022096;28;20554;-73
2023/06/03 02:54:33;;;;;;;3.23;2.90;;;12.50;70.00;;;12.03;62.22;98051.88;5041806;28;20975;-74
2023/06/03 02:57:00;;;;;;;6.60;2.83;;;12.40;69.90;;;12.00;62.66;98045.03;5030693;28;20463;-76
2023/06/03 02:59:27;;;;;;;3.20;2.90;;;12.40;70.10;;;12.01;62.55;98059.38;5033252;28;20472;-76
2023/06/03 03:01:55;;;;;;;2.93;2.73;;;12.30;70.30;;;11.90;62.66;98045.53;5027242;28;20607;-80
2023/06/03 03:04:22;;;;;;;3.47;2.47;;;12.30;70.50;;;11.81;63.09;98044.16;5037890;28;20471;-79
2023/06/03 03:06:54;;;;;;;3.23;2.90;;;12.30;70.70;;;11.87;63.27;98048.66;5026331;28;20464;-74
2023/06/03 03:09:21;;;;;;;9.00;2.90;;;12.20;70.80;;;11.83;63.21;98061.00;5032874;28;20451;-74
2023/06/03 03:11:48;;;;;;;3.40;3.10;;;12.20;70.90;;;11.87;63.30;98053.28;5050224;28;20471;-76
2023/06/03 03:14:16;;;;;;;6.37;2.80;;;12.20;71.00;;;11.75;63.57;98050.44;5032772;28;20460;-76
2023/06/03 03:16:43;;;;;;;4.30;2.93;;;12.10;71.30;;;11.79;63.60;98057.09;5032136;28;20452;-72
2023/06/03 03:19:10;;;;;;;3.53;3.20;;;12.10;71.30;;;11.75;64.03;98055.84;5042967;28;20461;-75
2023/06/03 03:21:38;;;;;;;4.63;3.03;;;12.10;71.30;;;11.71;63.88;98060.06;5039659;28;20491;-78
2023/06/03 03:24:07;;;;;;;4.50;2.47;;;12.10;71.50;;;11.73;63.65;98053.41;5035820;28;20972;-75
2023/06/03 03:26:35;;;;;;;3.00;2.70;;;12.20;71.90;;;11.72;63.70;98054.44;5035844;28;20454;-73
2023/06/03 03:29:02;;;;;;;4.23;3.60;;;12.10;71.60;;;11.76;63.90;98057.53;5039854;28;20448;-77
2023/06/03 03:31:30;;;;;;;4.77;3.23;;;12.20;71.70;;;11.69;64.40;98056.75;5050802;28;20521;-75
2023/06/03 03:33:59;;;;;;;4.10;3.33;;;12.20;71.70;;;11.74;63.86;98060.47;5037653;28;20460;-73
2023/06/03 03:36:28;;;;;;;3.50;3.20;;;12.20;71.80;;;11.83;63.67;98062.88;5043880;28;20510;-76
2023/06/03 03:39:06;;;;;;;5.67;3.10;;;12.20;71.70;;;11.72;64.21;98061.72;5025986;28;20476;-72
2023/06/03 03:41:33;;;;;;;3.90;3.10;;;12.30;71.80;;;11.33;64.10;97989.63;5021497;28;20997;-73
2023/06/03 03:44:01;;;;;;;4.10;3.40;;;12.30;71.70;;;11.84;63.95;98068.06;5022037;28;20464;-82
2023/06/03 03:46:28;;;;;;;4.57;3.60;;;12.30;71.70;;;11.92;63.83;98060.72;5042029;28;20980;-76
2023/06/03 03:48:55;;;;;;;3.90;2.90;;;12.30;71.80;;;11.90;63.41;98063.66;5033024;28;20452;-78
2023/06/03 03:51:23;;;;;;;3.53;3.10;;;12.30;71.60;;;11.97;63.35;98063.59;5027387;28;20829;-75
2023/06/03 03:53:50;;;;;;;3.53;3.23;;;12.40;71.50;;;12.10;63.18;98068.91;5041852;28;20838;-81
2023/06/03 03:56:21;;;;;;;3.70;3.10;;;12.50;71.50;;;12.12;62.76;98066.78;5041542;28;20452;-78
2023/06/03 03:58:49;;;;;;;6.70;3.13;;;12.50;71.30;;;12.29;62.57;98066.19;5024590;28;20450;-75
2023/06/03 04:01:22;;;;;;;5.00;3.50;;;12.60;71.30;;;12.30;62.24;98051.59;5026332;28;20582;-73
2023/06/03 04:03:52;;;;;;;3.43;3.00;;;12.70;70.80;;;12.52;61.87;98059.28;5025611;28;20459;-72
2023/06/03 04:06:32;;;;;;;4.70;3.37;;;12.90;70.60;;;12.88;60.49;98060.28;5030346;28;20466;-78
2023/06/03 04:09:00;;;;;;;4.77;3.30;;;13.30;69.40;;;12.95;59.58;98025.75;5038921;28;20953;-73
2023/06/03 04:11:30;;;;;;;6.07;3.23;;;13.70;68.30;;;13.34;58.72;98057.13;5030359;28;20461;-73
2023/06/03 04:14:00;;;;;;;7.10;3.13;;;13.80;67.40;;;13.25;58.79;98057.44;5023932;28;20469;-81
2023/06/03 04:16:49;;;;;;;3.23;2.93;;;13.90;66.70;;;13.53;58.32;98069.56;5029344;28;20474;-75
2023/06/03 04:19:27;;;;;;;4.10;3.03;;;14.00;66.50;;;14.02;56.98;98061.22;5033974;28;20535;-75
2023/06/03 04:21:55;;;;;;;4.40;3.40;;;14.50;65.80;;;14.21;55.04;98039.34;5028046;28;20471;-73
2023/06/03 04:24:24;;;;;;;3.60;3.27;;;15.00;64.10;;;14.37;55.39;98067.69;5030916;28;20505;-73
2023/06/03 04:26:52;;;;;;;3.00;2.70;;;15.10;63.10;;;14.51;54.91;98065.53;5023882;28;20970;-81
2023/06/03 04:29:19;;;;;;;3.70;3.00;;;15.20;62.50;;;14.22;55.37;98064.66;5028755;28;20459;-74
2023/06/03 04:31:47;;;;;;;4.13;3.10;;;15.10;62.30;;;14.24;55.10;98070.66;5028535;28;20468;-75
2023/06/03 04:34:14;;;;;;;4.70;3.50;;;15.00;61.90;;;13.90;56.13;98073.16;5026529;28;20473;-76
2023/06/03 04:36:42;;;;;;;3.37;2.83;;;14.70;62.70;;;13.63;57.46;98076.31;5026251;28;20465;-74
2023/06/03 04:39:10;;;;;;;3.50;3.07;;;14.30;63.60;;;12.80;58.77;98028.88;5027130;28;20963;-73
2023/06/03 04:41:38;;;;;;;3.87;3.20;;;13.90;64.40;;;13.20;58.79;98081.72;5025659;28;20463;-76
2023/06/03 04:44:08;;;;;;;4.63;2.97;;;13.70;65.00;;;12.82;58.93;98023.25;5037330;28;20525;-77
2023/06/03 04:46:35;;;;;;;3.87;3.00;;;13.60;65.60;;;13.38;58.52;98082.72;5021159;28;20452;-75
2023/06/03 04:49:03;;;;;;;4.90;3.20;;;13.70;65.80;;;13.71;57.79;98098.53;5028079;28;20461;-75
2023/06/03 04:51:33;;;;;;;5.53;3.50;;;14.00;65.70;;;13.08;57.85;98023.91;5027031;28;20483;-75
2023/06/03 04:54:01;;;;;;;4.40;2.80;;;14.10;64.80;;;13.37;58.13;98078.34;5026168;28;20468;-76
2023/06/03 04:56:30;;;;;;;4.63;3.53;;;13.90;65.10;;;13.47;58.50;98081.38;5028892;28;21037;-76
2023/06/03 04:59:00;;;;;;;3.07;2.70;;;13.90;65.40;;;13.75;57.45;98088.03;5045290;28;20531;-74
2023/06/03 05:01:29;;;;;;;4.77;3.63;;;14.10;65.10;;;13.49;57.42;98062.97;5026685;28;20465;-76
2023/06/03 05:03:57;;;;;;;3.10;2.90;;;14.10;64.60;;;13.68;57.39;98092.72;5033177;28;20454;-78
2023/06/03 05:06:25;;;;;;;3.33;2.90;;;14.20;64.60;;;14.16;56.66;98096.31;5005257;28;20494;-80
2023/06/03 05:08:53;;;;;;;6.70;2.97;;;14.60;64.30;;;14.30;55.96;98094.16;5021250;28;20454;-78
2023/06/03 05:11:20;;;;;;;3.67;3.37;;;14.80;63.40;;;14.11;56.18;98083.44;5027031;28;20475;-79
2023/06/03 05:13:47;;;;;;;6.10;3.40;;;14.80;63.10;;;14.16;56.14;98090.88;5030089;28;20588;-73
2023/06/03 05:16:15;;;;;;;3.70;3.13;;;14.70;63.30;;;13.86;56.83;98089.91;5033520;28;20460;-77
2023/06/03 05:18:45;;;;;;;4.67;3.47;;;14.50;63.40;;;13.90;57.19;98094.91;5027268;28;20460;-75
2023/06/03 05:21:12;;;;;;;4.70;3.60;;;14.40;64.00;;;13.64;57.46;98080.69;5032453;28;20456;-75
2023/06/03 05:23:39;;;;;;;4.60;3.30;;;14.30;64.10;;;13.81;57.34;98097.94;5034968;28;20471;-77
2023/06/03 05:26:07;;;;;;;3.40;2.67;;;14.30;64.30;;;13.93;56.62;98083.56;5049355;28;20448;-75
2023/06/03 05:28:34;;;;;;;3.40;2.57;;;14.40;64.10;;;14.48;55.71;98097.78;5042142;28;20473;-75
2023/06/03 05:31:01;;;;;;;3.03;2.50;;;14.70;63.90;;;14.37;55.75;98094.88;5037223;28;20461;-76
2023/06/03 05:33:30;;;;;;;5.20;3.07;;;14.80;62.90;;;14.35;55.84;98086.13;5040152;28;20480;-79
2023/06/03 05:35:59;;;;;;;6.57;3.30;;;14.90;63.10;;;14.76;54.70;98082.63;5025315;28;20484;-74
2023/06/03 05:38:27;;;;;;;6.47;3.50;;;15.20;62.80;;;14.40;54.90;98071.81;5030672;28;20461;-76
2023/06/03 05:40:54;;;;;;;3.83;2.90;;;15.10;61.90;;;14.43;55.06;98077.59;5023532;28;20468;-75
2023/06/03 05:43:23;;;;;;;5.70;3.00;;;15.00;61.90;;;14.69;55.08;98089.03;5021836;28;20803;-81
2023/06/03 05:45:51;;;;;;;3.27;2.97;;;15.10;62.30;;;14.96;54.91;98090.38;5021042;28;20471;-75
2023/06/03 05:48:18;;;;;;;4.80;3.20;;;15.30;62.20;;;15.11;53.71;98087.13;5039604;28;20456;-75
2023/06/03 05:50:50;;;;;;;3.50;3.00;;;15.50;61.40;;;16.50;50.61;98087.72;5035421;28;20471;-75
2023/06/03 05:53:21;;;;;;;4.07;2.97;;;16.70;59.90;;;16.94;48.75;98074.06;5021083;28;20474;-77
2023/06/03 05:55:49;;;;;;;6.00;3.77;;;17.70;57.60;;;15.87;51.39;98083.25;5037544;28;20454;-77
2023/06/03 05:58:18;;;;;;;4.10;3.17;;;17.00;57.10;;;15.48;52.93;98069.56;5038821;28;20468;-74
2023/06/03 06:00:46;;;;;;;3.30;3.00;;;16.30;58.40;;;15.87;51.46;98080.53;5024576;28;20553;-77
2023/06/03 06:03:14;;;;;;;5.87;4.13;;;16.40;58.40;;;16.79;49.29;98071.97;5035337;28;20459;-73
2023/06/03 06:05:42;;;;;;;6.10;3.73;;;17.30;57.70;;;16.83;49.54;98084.06;5025091;28;20468;-74
2023/06/03 06:08:10;;;;;;;5.47;3.40;;;17.60;56.70;;;17.62;47.86;98088.41;5030810;28;20458;-68
2023/06/03 06:10:38;;;;;;;2.97;2.67;;;18.10;56.30;;;17.56;47.29;98085.63;5029435;28;20451;-70
2023/06/03 06:13:06;;;;;;;3.90;2.97;;;18.50;54.90;;;17.01;48.39;98092.19;5011443;28;20489;-69
2023/06/03 06:15:33;;;;;;;6.73;3.57;;;18.10;54.70;;;17.04;48.87;98097.13;5016393;28;20521;-67
2023/06/03 06:18:00;;;;;;;3.40;3.10;;;18.00;55.00;;;17.22;48.56;98091.34;5020862;28;20450;-68
2023/06/03 06:20:28;;;;;;;4.53;3.07;;;18.00;55.00;;;16.68;49.29;98090.13;5025879;28;20447;-67
2023/06/03 06:22:55;;;;;;;3.50;3.20;;;17.80;54.70;;;16.82;49.51;98097.94;5012282;28;20443;-68
2023/06/03 06:25:23;;;;;;;5.40;3.30;;;17.70;55.40;;;16.65;49.61;98098.84;5012689;28;20462;-66
2023/06/03 06:27:52;;;;;;;5.20;2.93;;;17.60;55.30;;;16.06;51.46;98092.03;5016383;28;20491;-76
2023/06/03 06:30:21;;;;;;;4.87;3.30;;;16.90;55.90;;;16.07;51.32;98092.84;5017141;28;20512;-78
2023/06/03 06:32:50;;;;;;;3.63;3.23;;;16.60;56.70;;;16.12;51.71;98101.91;5030978;28;20482;-84
2023/06/03 06:35:18;;;;;;;3.87;3.33;;;16.50;57.20;;;16.38;50.94;98099.56;5017925;28;20810;-80
2023/06/03 06:37:46;;;;;;;3.97;2.80;;;16.60;57.30;;;16.13;51.96;98091.84;5029669;28;20466;-74
2023/06/03 06:40:19;;;;;;;6.60;3.63;;;16.60;57.40;;;15.90;51.35;98028.28;5023592;28;20447;-67
2023/06/03 06:42:47;;;;;;;4.73;3.27;;;16.70;57.40;;;16.32;51.03;98095.13;5016613;28;20512;-69
2023/06/03 06:45:26;;;;;;;3.83;3.00;;;16.70;57.20;;;16.10;52.51;98090.44;5022953;28;20454;-68
2023/06/03 06:48:04;;;;;;;3.30;3.00;;;16.60;57.70;;;16.35;51.47;98089.16;5027572;28;20536;-68
2023/06/03 06:50:45;;;;;;;3.10;2.90;;;16.70;57.70;;;17.30;51.38;98091.94;5038962;28;20558;-67
2023/06/03 06:53:14;;;;;;;4.17;3.27;;;17.20;58.90;;;17.05;50.13;98087.84;5039236;28;20474;-68
2023/06/03 06:55:51;;;;;;;4.00;3.57;;;17.40;57.50;;;16.45;50.96;98083.03;5042623;28;20473;-69
2023/06/03 06:58:19;;;;;;;4.10;3.33;;;17.00;57.00;;;16.23;52.13;98093.91;5029450;28;20541;-69
2023/06/03 07:00:49;;;;;;;5.47;3.80;;;16.70;57.50;;;16.55;51.22;98079.59;5029348;28;20469;-71
2023/06/03 07:03:18;;;;;;;5.53;3.53;;;16.90;57.80;;;16.94;51.44;98073.25;5021613;28;20528;-75
2023/06/03 07:05:46;;;;;;;5.60;3.53;;;17.10;59.20;;;16.99;50.29;98082.34;5039820;28;20470;-79
2023/06/03 07:08:13;;;;;;;3.93;3.20;;;17.20;57.70;;;16.88;51.79;98091.47;5027479;28;20470;-71
2023/06/03 07:10:41;;;;;;;3.97;3.53;;;17.20;57.70;;;16.98;50.28;98086.13;5030083;28;20457;-71
2023/06/03 07:13:08;;;;;;;3.93;3.30;;;17.30;57.10;;;17.57;49.85;98089.19;5036332;28;21052;-70
2023/06/03 07:15:40;;;;;;;3.40;3.03;;;17.60;57.80;;;17.79;49.16;98089.09;5021157;28;20462;-69
2023/06/03 07:18:10;;;;;;;3.50;3.20;;;17.90;57.20;;;17.46;49.21;98076.53;5022019;28;20461;-70
2023/06/03 07:20:43;;;;;;;3.00;2.80;;;17.90;56.30;;;17.50;49.00;98081.19;5028137;28;20462;-70
2023/06/03 07:23:14;;;;;;;4.43;3.20;;;17.90;56.30;;;17.17;49.15;98049.50;5044071;28;20458;-69
2023/06/03 07:25:43;;;;;;;4.60;4.03;;;17.80;56.10;;;16.82;50.33;98082.38;5027574;28;21168;-69
2023/06/03 07:28:13;;;;;;;4.27;3.00;;;17.40;56.10;;;16.74;51.00;98096.47;5028316;28;20470;-71
2023/06/03 07:30:42;;;;;;;5.03;3.90;;;17.20;56.80;;;16.99;50.73;98097.91;5031319;28;20572;-70
2023/06/03 07:33:18;;;;;;;4.63;3.00;;;17.20;57.30;;;17.24;50.15;98086.44;5042357;28;20481;-71
2023/06/03 07:35:46;;;;;;;4.57;3.57;;;17.50;57.10;;;17.37;49.28;98084.38;5031356;28;20453;-72
2023/06/03 07:38:38;;;;;;;4.73;3.97;;;17.60;56.60;;;17.28;49.66;98087.56;5028099;28;20868;-70
2023/06/03 07:41:05;;;;;;;4.50;3.83;;;17.60;56.50;;;17.24;49.45;98097.34;5037059;28;20845;-70
2023/06/03 07:43:34;;;;;;;3.90;2.93;;;17.70;56.30;;;16.96;50.07;98099.19;5018846;28;20470;-70
2023/06/03 07:46:04;;;;;;;3.77;3.20;;;17.40;56.30;;;17.06;50.25;98090.34;5024422;28;20461;-71
2023/06/03 07:48:34;;;;;;;5.93;3.57;;;17.40;56.60;;;17.52;49.32;98084.53;5030148;28;20865;-71
2023/06/03 07:51:01;;;;;;;5.07;3.47;;;17.70;56.60;;;17.95;48.55;98091.94;5030035;28;20503;-70
2023/06/03 07:53:30;;;;;;;4.87;3.50;;;18.10;56.40;;;17.80;48.28;98088.00;5035622;28;20486;-71
2023/06/03 07:56:00;;;;;;;3.13;2.60;;;18.20;55.80;;;17.79;48.33;98089.09;5017923;28;20512;-71
2023/06/03 07:58:28;;;;;;;4.30;3.67;;;18.10;55.60;;;17.49;48.35;98101.41;5019100;28;20474;-71
2023/06/03 08:00:55;;;;;;;4.10;3.63;;;17.90;55.30;;;17.37;48.96;98098.84;5032288;28;20603;-69
2023/06/03 08:03:23;;;;;;;3.97;3.43;;;17.80;55.60;;;17.76;48.87;98089.63;5016252;28;20450;-70
2023/06/03 08:05:52;;;;;;;5.37;3.67;;;17.90;56.10;;;17.81;48.46;98099.78;5024889;28;20458;-70
2023/06/03 08:08:19;;;;;;;3.30;3.00;;;18.10;55.60;;;17.59;48.43;98080.75;5019993;28;20466;-70
2023/06/03 08:10:49;;;;;;;4.80;4.30;;;18.00;55.10;;;18.10;47.73;98094.81;5027757;28;20512;-70
2023/06/03 08:13:19;;;;;;;4.20;3.10;;;18.20;55.50;;;18.47;46.98;98092.31;5031816;28;20469;-71
2023/06/03 08:15:47;;;;;;;3.77;3.40;;;18.60;55.50;;;18.33;47.17;98097.41;5023309;28;20552;-70
2023/06/03 08:18:36;;;;;;;3.30;3.00;;;18.60;55.00;;;18.49;46.75;98101.06;5024715;28;20466;-71
2023/06/03 08:21:05;;;;;;;3.50;3.20;;;18.60;54.80;;;18.59;46.33;98098.41;5030973;28;20514;-71
2023/06/03 08:23:33;;;;;;;6.20;3.43;;;18.90;54.60;;;18.53;46.93;98104.91;5038107;28;20460;-71
2023/06/03 08:26:01;;;;;;;4.20;3.27;;;18.80;54.60;;;18.39;46.99;98091.72;5026436;28;20463;-73
2023/06/03 08:28:28;;;;;;;5.63;4.00;;;18.70;54.50;;;18.52;46.69;98100.53;5031688;28;20546;-72
2023/06/03 08:30:56;;;;;;;4.00;3.60;;;18.70;54.60;;;18.21;47.30;98092.16;5016674;28;20467;-72
2023/06/03 08:33:23;;;;;;;5.33;3.33;;;18.60;54.30;;;18.52;46.80;98086.88;5017862;28;20480;-71
2023/06/03 08:35:51;;;;;;;5.10;3.67;;;18.70;54.50;;;18.57;46.83;98086.06;5019443;28;20469;-71
2023/06/03 08:38:20;;;;;;;4.07;3.70;;;18.80;54.40;;;18.33;47.18;98084.59;5033959;28;20468;-70
2023/06/03 08:40:49;;;;;;;4.60;3.50;;;18.70;54.30;;;18.68;46.33;98088.59;5022110;28;20463;-71
2023/06/03 08:43:17;;;;;;;4.80;3.67;;;18.90;54.30;;;18.53;46.72;98070.19;5018860;28;20839;-71
2023/06/03 08:46:09;;;;;;;4.43;3.70;;;18.80;54.20;;;18.92;46.26;98090.88;5016204;28;20468;-70
2023/06/03 08:48:45;;;;;;;3.87;3.50;;;19.00;54.50;;;19.22;45.30;98086.59;5020504;28;20469;-70
2023/06/03 08:51:16;;;;;;;4.30;2.73;;;19.30;53.90;;;19.55;44.77;98080.88;5014437;28;20458;-70
2023/06/03 08:53:50;;;;;;;3.60;3.00;;;19.60;53.90;;;19.91;44.31;98080.06;5025586;28;20489;-71
2023/06/03 08:56:20;;;;;;;3.77;3.43;;;19.90;53.90;;;19.97;43.84;98081.75;5022436;28;20450;-70
2023/06/03 08:58:51;;;;;;;4.27;3.80;;;20.10;53.20;;;19.30;44.31;98048.81;5038419;28;20481;-72
2023/06/03 09:01:22;;;;;;;4.03;3.27;;;19.90;52.80;;;19.36;45.49;98086.91;5039698;28;20504;-71
2023/06/03 09:03:53;;;;;;;4.03;3.63;;;19.70;53.30;;;19.45;45.19;98089.91;5032202;28;20485;-71
2023/06/03 09:06:26;;;;;;;4.30;3.40;;;19.70;53.30;;;19.25;45.23;98094.28;5035773;28;20568;-70
2023/06/03 09:08:55;;;;;;;4.43;3.60;;;19.60;53.20;;;19.18;45.06;98090.97;5023216;28;20443;-70
2023/06/03 09:11:23;;;;;;;4.93;3.77;;;19.60;53.00;;;19.57;45.02;98088.84;5022508;28;20536;-71
2023/06/03 09:13:53;;;;;;;4.90;3.20;;;19.60;53.40;;;19.62;45.07;98084.19;5020133;28;20490;-70
2023/06/03 09:16:21;;;;;;;3.57;3.27;;;19.80;53.40;;;19.47;44.52;98078.69;5020609;28;20553;-70
2023/06/03 09:18:52;;;;;;;4.17;3.30;;;19.70;52.70;;;19.63;44.36;98071.28;5019088;28;20492;-70
2023/06/03 09:21:21;;;;;;;4.13;3.77;;;19.80;52.70;;;19.62;43.89;98061.44;5034078;28;20470;-70
2023/06/03 09:23:51;;;;;;;3.70;3.03;;;19.90;52.40;;;19.56;44.46;98073.50;5028072;28;20455;-71
2023/06/03 09:26:21;;;;;;;4.47;3.47;;;19.80;52.60;;;19.68;44.18;98072.13;5020791;28;20949;-70
2023/06/03 09:28:48;;;;;;;3.80;3.40;;;19.90;52.50;;;19.91;43.68;98071.84;5024364;28;20464;-70
2023/06/03 09:31:15;;;;;;;3.60;3.30;;;20.10;52.40;;;20.19;43.50;98078.72;5021487;28;20480;-70
2023/06/03 09:33:43;;;;;;;3.33;3.03;;;20.20;52.50;;;20.29;42.82;98075.13;5023838;28;20465;-69
2023/06/03 09:36:13;;;;;;;4.27;3.87;;;20.50;51.90;;;19.77;43.90;98079.81;5021540;28;20532;-70
2023/06/03 09:38:49;;;;;;;4.33;3.40;;;20.20;51.80;;;20.31;43.11;98064.69;5026607;28;20918;-69
2023/06/03 09:41:19;;;;;;;5.53;3.83;;;20.40;52.20;;;20.03;43.26;98083.38;5021584;28;20533;-70
2023/06/03 09:43:57;;;;;;;4.67;3.63;;;20.30;51.70;;;20.26;42.50;98070.19;5039335;28;20991;-70
2023/06/03 09:46:27;;;;;;;3.77;3.10;;;20.50;51.60;;;20.28;42.70;98073.47;5023072;28;20454;-70
2023/06/03 09:48:55;;;;;;;3.90;3.50;;;20.60;51.50;;;20.82;42.27;98071.09;5025170;28;21010;-68
2023/06/03 09:51:42;;;;;;;4.53;3.70;;;20.80;51.80;;;21.63;40.44;98070.09;5037953;28;20447;-70
2023/06/03 09:54:15;;;;;;;3.23;2.93;;;21.50;51.50;;;21.97;39.17;98055.50;5028151;28;20477;-69
2023/06/03 09:56:45;;;;;;;4.60;3.60;;;22.00;50.50;;;21.87;39.10;98011.59;5028031;28;20492;-70
2023/06/03 09:59:21;;;;;;;4.13;3.37;;;22.30;50.10;;;21.86;39.47;98075.97;5042860;28;20487;-70
2023/06/03 10:01:49;;;;;;;3.43;3.13;;;22.30;49.60;;;22.13;38.88;98074.63;5026217;28;20478;-70
2023/06/03 10:04:20;;;;;;;4.43;3.50;;;22.20;49.50;;;22.43;38.12;98070.72;5025925;28;20451;-70
2023/06/03 10:06:48;;;;;;;3.23;2.93;;;22.60;49.20;;;22.50;37.76;98073.97;5023310;28;20456;-69
2023/06/03 10:09:20;;;;;;;3.27;2.83;;;22.60;48.80;;;22.19;38.59;98070.69;5014640;28;20572;-69
2023/06/03 10:11:51;;;;;;;3.13;2.70;;;22.40;49.10;;;21.81;39.36;98076.00;5010334;28;20576;-70
2023/06/03 10:14:25;;;;;;;4.47;3.70;;;22.10;49.10;;;21.56;39.92;98072.31;5017721;28;20538;-69
2023/06/03 10:17:09;;;;;;;3.63;3.33;;;22.00;49.20;;;22.27;38.63;98066.50;5040240;28;20449;-69
2023/06/03 10:19:38;;;;;;;6.20;3.40;;;22.20;49.40;;;21.97;39.12;98071.19;5015831;28;20463;-70
2023/06/03 10:22:08;;;;;;;4.50;4.10;;;22.20;48.90;;;22.21;38.33;98068.47;5028494;28;21037;-70
2023/06/03 10:24:39;;;;;;;3.60;3.13;;;22.40;48.70;;;22.60;38.11;98073.03;5026522;28;20458;-69
2023/06/03 10:27:09;;;;;;;4.53;4.10;;;22.50;48.90;;;23.04;37.14;98079.34;5014827;28;20468;-69
2023/06/03 10:29:37;;;;;;;4.17;3.57;;;23.00;48.80;;;23.37;36.90;98066.84;5024483;28;20462;-75